sensor_id;sensor_type;location;lat;lon;timestamp;P1;durP1;ratioP1;P2;durP2;ratioP2
47053;SDS011;32811;52.382;5.270;2022-12-29T00:01:41;2.67;;;1.38;;
47053;SDS011;32811;52.382;5.270;2022-12-29T00:04:09;1.95;;;1.30;;
47053;SDS011;32811;52.382;5.270;2022-12-29T00:06:41;2.00;;;1.10;;
47053;SDS011;32811;52.382;5.270;2022-12-29T00:09:12;2.53;;;1.35;;
47053;SDS011;32811;52.382;5.270;2022-12-29T00:11:40;2.05;;;1.17;;
47053;SDS011;32811;52.382;5.270;2022-12-29T00:14:08;1.25;;;1.05;;
47053;SDS011;32811;52.382;5.270;2022-12-29T00:16:54;1.20;;;1.02;;
47053;SDS011;32811;52.382;5.270;2022-12-29T00:19:21;3.38;;;1.40;;
47053;SDS011;32811;52.382;5.270;2022-12-29T00:22:08;1.95;;;1.27;;
47053;SDS011;32811;52.382;5.270;2022-12-29T00:24:55;1.67;;;1.00;;
47053;SDS011;32811;52.382;5.270;2022-12-29T00:30:32;1.65;;;0.93;;
47053;SDS011;32811;52.382;5.270;2022-12-29T00:33:21;1.17;;;0.98;;
47053;SDS011;32811;52.382;5.270;2022-12-29T00:36:27;2.28;;;1.20;;
47053;SDS011;32811;52.382;5.270;2022-12-29T00:41:45;2.08;;;1.20;;
47053;SDS011;32811;52.382;5.270;2022-12-29T00:46:57;1.48;;;1.02;;
47053;SDS011;32811;52.382;5.270;2022-12-29T00:49:28;4.00;;;1.00;;
47053;SDS011;32811;52.382;5.270;2022-12-29T00:52:17;1.98;;;0.65;;
47053;SDS011;32811;52.382;5.270;2022-12-29T00:54:44;2.60;;;0.88;;
47053;SDS011;32811;52.382;5.270;2022-12-29T00:57:31;1.02;;;0.80;;
47053;SDS011;32811;52.382;5.270;2022-12-29T00:59:57;3.42;;;0.70;;
47053;SDS011;32811;52.382;5.270;2022-12-29T01:02:24;1.42;;;0.63;;
47053;SDS011;32811;52.382;5.270;2022-12-29T01:04:51;2.28;;;0.60;;
47053;SDS011;32811;52.382;5.270;2022-12-29T01:07:19;2.97;;;0.90;;
47053;SDS011;32811;52.382;5.270;2022-12-29T01:09:45;1.38;;;0.80;;
47053;SDS011;32811;52.382;5.270;2022-12-29T01:12:32;3.67;;;1.02;;
47053;SDS011;32811;52.382;5.270;2022-12-29T01:15:09;2.55;;;0.60;;
47053;SDS011;32811;52.382;5.270;2022-12-29T01:17:37;1.30;;;0.77;;
47053;SDS011;32811;52.382;5.270;2022-12-29T01:20:05;0.93;;;0.60;;
47053;SDS011;32811;52.382;5.270;2022-12-29T01:22:32;6.05;;;1.02;;
47053;SDS011;32811;52.382;5.270;2022-12-29T01:24:59;1.48;;;0.75;;
47053;SDS011;32811;52.382;5.270;2022-12-29T01:27:26;1.48;;;0.75;;
47053;SDS011;32811;52.382;5.270;2022-12-29T01:29:53;1.10;;;0.50;;
47053;SDS011;32811;52.382;5.270;2022-12-29T01:32:20;3.33;;;1.00;;
47053;SDS011;32811;52.382;5.270;2022-12-29T01:34:47;2.15;;;0.60;;
47053;SDS011;32811;52.382;5.270;2022-12-29T01:37:14;2.22;;;0.70;;
47053;SDS011;32811;52.382;5.270;2022-12-29T01:39:40;3.67;;;0.60;;
47053;SDS011;32811;52.382;5.270;2022-12-29T01:42:17;1.73;;;0.52;;
47053;SDS011;32811;52.382;5.270;2022-12-29T01:44:56;2.40;;;0.55;;
47053;SDS011;32811;52.382;5.270;2022-12-29T01:47:31;0.80;;;0.50;;
47053;SDS011;32811;52.382;5.270;2022-12-29T01:52:51;0.73;;;0.55;;
47053;SDS011;32811;52.382;5.270;2022-12-29T01:55:23;2.10;;;0.50;;
47053;SDS011;32811;52.382;5.270;2022-12-29T01:57:52;3.17;;;1.25;;
47053;SDS011;32811;52.382;5.270;2022-12-29T02:00:20;1.70;;;0.50;;
47053;SDS011;32811;52.382;5.270;2022-12-29T02:02:50;4.38;;;0.82;;
47053;SDS011;32811;52.382;5.270;2022-12-29T02:08:10;4.70;;;0.50;;
47053;SDS011;32811;52.382;5.270;2022-12-29T02:10:38;0.93;;;0.30;;
47053;SDS011;32811;52.382;5.270;2022-12-29T02:13:07;3.13;;;0.93;;
47053;SDS011;32811;52.382;5.270;2022-12-29T02:37:21;1.75;;;0.50;;
47053;SDS011;32811;52.382;5.270;2022-12-29T02:39:59;0.85;;;0.50;;
47053;SDS011;32811;52.382;5.270;2022-12-29T02:45:35;0.52;;;0.25;;
47053;SDS011;32811;52.382;5.270;2022-12-29T02:48:15;3.92;;;0.47;;
47053;SDS011;32811;52.382;5.270;2022-12-29T02:50:48;4.15;;;0.65;;
47053;SDS011;32811;52.382;5.270;2022-12-29T02:53:22;2.85;;;0.55;;
47053;SDS011;32811;52.382;5.270;2022-12-29T02:56:09;4.15;;;0.40;;
47053;SDS011;32811;52.382;5.270;2022-12-29T02:58:36;1.52;;;0.32;;
47053;SDS011;32811;52.382;5.270;2022-12-29T03:01:07;4.38;;;0.70;;
47053;SDS011;32811;52.382;5.270;2022-12-29T03:04:05;5.00;;;1.30;;
47053;SDS011;32811;52.382;5.270;2022-12-29T03:07:02;4.57;;;0.63;;
47053;SDS011;32811;52.382;5.270;2022-12-29T03:09:57;2.22;;;0.38;;
47053;SDS011;32811;52.382;5.270;2022-12-29T03:15:29;2.50;;;0.60;;
47053;SDS011;32811;52.382;5.270;2022-12-29T03:24:22;3.78;;;1.77;;
47053;SDS011;32811;52.382;5.270;2022-12-29T03:26:55;2.60;;;1.35;;
47053;SDS011;32811;52.382;5.270;2022-12-29T03:29:25;4.47;;;1.95;;
47053;SDS011;32811;52.382;5.270;2022-12-29T03:31:55;4.82;;;0.93;;
47053;SDS011;32811;52.382;5.270;2022-12-29T03:34:30;2.22;;;0.68;;
47053;SDS011;32811;52.382;5.270;2022-12-29T03:37:00;4.45;;;0.65;;
47053;SDS011;32811;52.382;5.270;2022-12-29T03:39:32;3.42;;;0.80;;
47053;SDS011;32811;52.382;5.270;2022-12-29T03:42:01;4.53;;;1.05;;
47053;SDS011;32811;52.382;5.270;2022-12-29T03:44:33;4.60;;;0.50;;
47053;SDS011;32811;52.382;5.270;2022-12-29T03:47:03;5.07;;;0.70;;
47053;SDS011;32811;52.382;5.270;2022-12-29T03:49:30;7.53;;;0.90;;
47053;SDS011;32811;52.382;5.270;2022-12-29T03:51:56;4.75;;;0.80;;
47053;SDS011;32811;52.382;5.270;2022-12-29T03:54:23;7.18;;;0.80;;
47053;SDS011;32811;52.382;5.270;2022-12-29T03:56:50;4.22;;;0.80;;
47053;SDS011;32811;52.382;5.270;2022-12-29T03:59:17;13.25;;;2.58;;
47053;SDS011;32811;52.382;5.270;2022-12-29T04:01:43;12.05;;;1.45;;
47053;SDS011;32811;52.382;5.270;2022-12-29T04:04:10;8.40;;;1.10;;
47053;SDS011;32811;52.382;5.270;2022-12-29T04:06:37;9.40;;;1.92;;
47053;SDS011;32811;52.382;5.270;2022-12-29T04:09:04;8.00;;;1.63;;
47053;SDS011;32811;52.382;5.270;2022-12-29T04:11:31;10.75;;;2.10;;
47053;SDS011;32811;52.382;5.270;2022-12-29T04:13:59;7.95;;;1.55;;
47053;SDS011;32811;52.382;5.270;2022-12-29T04:16:26;9.68;;;1.45;;
47053;SDS011;32811;52.382;5.270;2022-12-29T04:18:53;12.27;;;0.93;;
47053;SDS011;32811;52.382;5.270;2022-12-29T04:21:21;6.80;;;1.25;;
47053;SDS011;32811;52.382;5.270;2022-12-29T04:23:47;2.95;;;0.95;;
47053;SDS011;32811;52.382;5.270;2022-12-29T04:26:14;9.07;;;2.22;;
47053;SDS011;32811;52.382;5.270;2022-12-29T04:28:41;7.93;;;1.50;;
47053;SDS011;32811;52.382;5.270;2022-12-29T04:31:08;6.15;;;0.75;;
47053;SDS011;32811;52.382;5.270;2022-12-29T04:33:35;5.10;;;1.17;;
47053;SDS011;32811;52.382;5.270;2022-12-29T04:36:02;7.70;;;1.98;;
47053;SDS011;32811;52.382;5.270;2022-12-29T04:38:29;4.05;;;1.55;;
47053;SDS011;32811;52.382;5.270;2022-12-29T04:40:58;7.35;;;0.75;;
47053;SDS011;32811;52.382;5.270;2022-12-29T04:43:25;4.60;;;0.65;;
47053;SDS011;32811;52.382;5.270;2022-12-29T04:45:53;2.65;;;0.80;;
47053;SDS011;32811;52.382;5.270;2022-12-29T04:48:20;5.70;;;0.68;;
47053;SDS011;32811;52.382;5.270;2022-12-29T04:50:48;7.28;;;0.60;;
47053;SDS011;32811;52.382;5.270;2022-12-29T04:53:16;8.95;;;1.40;;
47053;SDS011;32811;52.382;5.270;2022-12-29T04:55:47;5.90;;;0.73;;
47053;SDS011;32811;52.382;5.270;2022-12-29T04:58:16;5.88;;;1.52;;
47053;SDS011;32811;52.382;5.270;2022-12-29T05:00:48;9.82;;;1.95;;
47053;SDS011;32811;52.382;5.270;2022-12-29T05:03:16;8.50;;;0.88;;
47053;SDS011;32811;52.382;5.270;2022-12-29T05:05:43;6.22;;;0.82;;
47053;SDS011;32811;52.382;5.270;2022-12-29T05:08:10;12.82;;;3.83;;
47053;SDS011;32811;52.382;5.270;2022-12-29T05:10:38;21.13;;;2.15;;
47053;SDS011;32811;52.382;5.270;2022-12-29T05:13:06;12.30;;;2.22;;
47053;SDS011;32811;52.382;5.270;2022-12-29T05:15:33;12.15;;;1.00;;
47053;SDS011;32811;52.382;5.270;2022-12-29T05:17:59;8.63;;;1.80;;
47053;SDS011;32811;52.382;5.270;2022-12-29T05:20:26;4.40;;;1.08;;
47053;SDS011;32811;52.382;5.270;2022-12-29T05:22:52;8.05;;;1.55;;
47053;SDS011;32811;52.382;5.270;2022-12-29T05:25:20;9.50;;;1.60;;
47053;SDS011;32811;52.382;5.270;2022-12-29T05:27:47;11.88;;;2.35;;
47053;SDS011;32811;52.382;5.270;2022-12-29T05:30:14;7.05;;;1.42;;
47053;SDS011;32811;52.382;5.270;2022-12-29T05:32:42;9.15;;;1.65;;
47053;SDS011;32811;52.382;5.270;2022-12-29T05:35:09;11.60;;;2.08;;
47053;SDS011;32811;52.382;5.270;2022-12-29T05:37:35;11.13;;;1.85;;
47053;SDS011;32811;52.382;5.270;2022-12-29T05:40:03;4.57;;;1.58;;
47053;SDS011;32811;52.382;5.270;2022-12-29T05:42:30;5.45;;;1.58;;
47053;SDS011;32811;52.382;5.270;2022-12-29T05:44:59;8.93;;;1.75;;
47053;SDS011;32811;52.382;5.270;2022-12-29T05:47:26;8.38;;;2.47;;
47053;SDS011;32811;52.382;5.270;2022-12-29T05:49:53;15.05;;;1.90;;
47053;SDS011;32811;52.382;5.270;2022-12-29T05:52:20;7.47;;;1.05;;
47053;SDS011;32811;52.382;5.270;2022-12-29T05:54:47;6.40;;;0.75;;
47053;SDS011;32811;52.382;5.270;2022-12-29T05:57:14;11.88;;;1.77;;
47053;SDS011;32811;52.382;5.270;2022-12-29T05:59:41;11.65;;;1.48;;
47053;SDS011;32811;52.382;5.270;2022-12-29T06:02:08;8.95;;;1.45;;
47053;SDS011;32811;52.382;5.270;2022-12-29T06:04:36;10.95;;;1.42;;
47053;SDS011;32811;52.382;5.270;2022-12-29T06:07:03;11.05;;;3.38;;
47053;SDS011;32811;52.382;5.270;2022-12-29T06:09:30;6.97;;;1.67;;
47053;SDS011;32811;52.382;5.270;2022-12-29T06:11:57;7.82;;;1.58;;
47053;SDS011;32811;52.382;5.270;2022-12-29T06:14:23;8.18;;;1.10;;
47053;SDS011;32811;52.382;5.270;2022-12-29T06:16:50;14.48;;;1.60;;
47053;SDS011;32811;52.382;5.270;2022-12-29T06:19:16;8.25;;;2.50;;
47053;SDS011;32811;52.382;5.270;2022-12-29T06:21:43;13.73;;;2.72;;
47053;SDS011;32811;52.382;5.270;2022-12-29T06:24:10;8.90;;;2.13;;
47053;SDS011;32811;52.382;5.270;2022-12-29T06:26:37;8.68;;;1.35;;
47053;SDS011;32811;52.382;5.270;2022-12-29T06:29:04;12.75;;;2.20;;
47053;SDS011;32811;52.382;5.270;2022-12-29T06:31:30;6.60;;;1.92;;
47053;SDS011;32811;52.382;5.270;2022-12-29T06:33:57;7.82;;;1.08;;
47053;SDS011;32811;52.382;5.270;2022-12-29T06:36:31;8.87;;;0.93;;
47053;SDS011;32811;52.382;5.270;2022-12-29T06:38:58;8.13;;;1.33;;
47053;SDS011;32811;52.382;5.270;2022-12-29T06:41:25;7.03;;;1.63;;
47053;SDS011;32811;52.382;5.270;2022-12-29T06:43:57;15.05;;;1.30;;
47053;SDS011;32811;52.382;5.270;2022-12-29T06:46:24;9.35;;;1.95;;
47053;SDS011;32811;52.382;5.270;2022-12-29T06:48:52;6.65;;;1.05;;
47053;SDS011;32811;52.382;5.270;2022-12-29T06:51:19;8.60;;;1.45;;
47053;SDS011;32811;52.382;5.270;2022-12-29T06:53:46;11.07;;;1.52;;
47053;SDS011;32811;52.382;5.270;2022-12-29T06:56:13;6.47;;;1.13;;
47053;SDS011;32811;52.382;5.270;2022-12-29T06:58:40;13.13;;;1.50;;
47053;SDS011;32811;52.382;5.270;2022-12-29T07:01:07;14.40;;;1.23;;
47053;SDS011;32811;52.382;5.270;2022-12-29T07:03:34;6.95;;;1.88;;
47053;SDS011;32811;52.382;5.270;2022-12-29T07:06:01;14.38;;;2.45;;
47053;SDS011;32811;52.382;5.270;2022-12-29T07:08:27;15.48;;;3.22;;
47053;SDS011;32811;52.382;5.270;2022-12-29T07:10:54;10.82;;;1.45;;
47053;SDS011;32811;52.382;5.270;2022-12-29T07:13:20;11.65;;;2.80;;
47053;SDS011;32811;52.382;5.270;2022-12-29T07:15:47;11.88;;;1.42;;
47053;SDS011;32811;52.382;5.270;2022-12-29T07:18:14;13.60;;;1.50;;
47053;SDS011;32811;52.382;5.270;2022-12-29T07:20:42;12.60;;;1.92;;
47053;SDS011;32811;52.382;5.270;2022-12-29T07:23:09;12.35;;;2.97;;
47053;SDS011;32811;52.382;5.270;2022-12-29T07:25:36;17.25;;;1.58;;
47053;SDS011;32811;52.382;5.270;2022-12-29T07:28:02;13.77;;;2.05;;
47053;SDS011;32811;52.382;5.270;2022-12-29T07:30:29;18.77;;;2.20;;
47053;SDS011;32811;52.382;5.270;2022-12-29T07:32:56;10.75;;;1.85;;
47053;SDS011;32811;52.382;5.270;2022-12-29T07:35:23;21.77;;;2.40;;
47053;SDS011;32811;52.382;5.270;2022-12-29T07:37:51;17.77;;;1.38;;
47053;SDS011;32811;52.382;5.270;2022-12-29T07:40:18;14.00;;;1.63;;
47053;SDS011;32811;52.382;5.270;2022-12-29T07:42:45;17.27;;;1.40;;
47053;SDS011;32811;52.382;5.270;2022-12-29T07:45:11;18.17;;;2.50;;
47053;SDS011;32811;52.382;5.270;2022-12-29T07:47:38;15.88;;;1.80;;
47053;SDS011;32811;52.382;5.270;2022-12-29T07:50:05;16.17;;;2.58;;
47053;SDS011;32811;52.382;5.270;2022-12-29T07:52:32;19.08;;;2.35;;
47053;SDS011;32811;52.382;5.270;2022-12-29T07:54:58;10.55;;;2.00;;
47053;SDS011;32811;52.382;5.270;2022-12-29T07:57:25;14.32;;;4.10;;
47053;SDS011;32811;52.382;5.270;2022-12-29T07:59:57;8.73;;;1.52;;
47053;SDS011;32811;52.382;5.270;2022-12-29T08:02:24;6.15;;;0.90;;
47053;SDS011;32811;52.382;5.270;2022-12-29T08:04:52;8.68;;;1.60;;
47053;SDS011;32811;52.382;5.270;2022-12-29T08:07:19;8.70;;;1.52;;
47053;SDS011;32811;52.382;5.270;2022-12-29T08:09:46;7.70;;;2.05;;
47053;SDS011;32811;52.382;5.270;2022-12-29T08:12:13;10.88;;;1.65;;
47053;SDS011;32811;52.382;5.270;2022-12-29T08:14:40;10.73;;;1.77;;
47053;SDS011;32811;52.382;5.270;2022-12-29T08:17:06;15.15;;;2.70;;
47053;SDS011;32811;52.382;5.270;2022-12-29T08:19:33;6.55;;;1.50;;
47053;SDS011;32811;52.382;5.270;2022-12-29T08:22:00;8.35;;;1.75;;
47053;SDS011;32811;52.382;5.270;2022-12-29T08:24:27;9.00;;;1.00;;
47053;SDS011;32811;52.382;5.270;2022-12-29T08:26:53;8.95;;;1.27;;
47053;SDS011;32811;52.382;5.270;2022-12-29T08:29:20;10.65;;;2.47;;
47053;SDS011;32811;52.382;5.270;2022-12-29T08:31:48;7.18;;;1.05;;
47053;SDS011;32811;52.382;5.270;2022-12-29T08:34:14;12.00;;;1.40;;
47053;SDS011;32811;52.382;5.270;2022-12-29T08:36:42;18.60;;;1.95;;
47053;SDS011;32811;52.382;5.270;2022-12-29T08:39:09;13.63;;;2.13;;
47053;SDS011;32811;52.382;5.270;2022-12-29T08:41:36;13.77;;;2.10;;
47053;SDS011;32811;52.382;5.270;2022-12-29T08:44:03;16.70;;;2.15;;
47053;SDS011;32811;52.382;5.270;2022-12-29T08:46:30;18.48;;;2.10;;
47053;SDS011;32811;52.382;5.270;2022-12-29T08:48:57;10.80;;;1.17;;
47053;SDS011;32811;52.382;5.270;2022-12-29T08:51:23;15.02;;;1.65;;
47053;SDS011;32811;52.382;5.270;2022-12-29T08:53:50;14.98;;;2.80;;
47053;SDS011;32811;52.382;5.270;2022-12-29T08:56:18;13.00;;;1.77;;
47053;SDS011;32811;52.382;5.270;2022-12-29T08:58:45;7.88;;;1.60;;
47053;SDS011;32811;52.382;5.270;2022-12-29T09:01:12;21.40;;;2.40;;
47053;SDS011;32811;52.382;5.270;2022-12-29T09:03:39;16.95;;;2.53;;
47053;SDS011;32811;52.382;5.270;2022-12-29T09:06:25;6.85;;;2.10;;
47053;SDS011;32811;52.382;5.270;2022-12-29T09:08:53;12.85;;;1.90;;
47053;SDS011;32811;52.382;5.270;2022-12-29T09:11:21;10.73;;;1.70;;
47053;SDS011;32811;52.382;5.270;2022-12-29T09:13:49;6.85;;;1.48;;
47053;SDS011;32811;52.382;5.270;2022-12-29T09:16:17;18.30;;;1.98;;
47053;SDS011;32811;52.382;5.270;2022-12-29T09:18:44;13.65;;;1.80;;
47053;SDS011;32811;52.382;5.270;2022-12-29T09:21:11;15.05;;;2.50;;
47053;SDS011;32811;52.382;5.270;2022-12-29T09:23:38;12.82;;;3.42;;
47053;SDS011;32811;52.382;5.270;2022-12-29T09:26:05;8.60;;;1.65;;
47053;SDS011;32811;52.382;5.270;2022-12-29T09:28:33;15.07;;;1.83;;
47053;SDS011;32811;52.382;5.270;2022-12-29T09:31:01;18.38;;;3.45;;
47053;SDS011;32811;52.382;5.270;2022-12-29T09:33:28;9.50;;;2.30;;
47053;SDS011;32811;52.382;5.270;2022-12-29T09:35:56;12.85;;;2.28;;
47053;SDS011;32811;52.382;5.270;2022-12-29T09:38:24;11.55;;;1.30;;
47053;SDS011;32811;52.382;5.270;2022-12-29T09:41:05;10.52;;;1.95;;
47053;SDS011;32811;52.382;5.270;2022-12-29T09:46:59;17.73;;;2.28;;
47053;SDS011;32811;52.382;5.270;2022-12-29T09:49:47;7.63;;;1.00;;
47053;SDS011;32811;52.382;5.270;2022-12-29T09:52:19;10.73;;;2.08;;
47053;SDS011;32811;52.382;5.270;2022-12-29T09:55:03;5.95;;;0.80;;
47053;SDS011;32811;52.382;5.270;2022-12-29T10:00:50;9.25;;;1.98;;
47053;SDS011;32811;52.382;5.270;2022-12-29T10:03:24;9.45;;;1.48;;
47053;SDS011;32811;52.382;5.270;2022-12-29T10:09:33;8.77;;;1.48;;
47053;SDS011;32811;52.382;5.270;2022-12-29T10:17:44;15.30;;;1.50;;
47053;SDS011;32811;52.382;5.270;2022-12-29T10:26:15;12.80;;;2.47;;
47053;SDS011;32811;52.382;5.270;2022-12-29T10:28:50;7.65;;;2.67;;
47053;SDS011;32811;52.382;5.270;2022-12-29T10:31:23;7.28;;;1.38;;
47053;SDS011;32811;52.382;5.270;2022-12-29T10:33:53;13.25;;;1.73;;
47053;SDS011;32811;52.382;5.270;2022-12-29T10:36:27;15.63;;;2.47;;
47053;SDS011;32811;52.382;5.270;2022-12-29T10:39:05;9.48;;;2.10;;
47053;SDS011;32811;52.382;5.270;2022-12-29T10:41:40;15.40;;;2.15;;
47053;SDS011;32811;52.382;5.270;2022-12-29T10:44:13;15.55;;;2.83;;
47053;SDS011;32811;52.382;5.270;2022-12-29T10:46:43;14.15;;;2.03;;
47053;SDS011;32811;52.382;5.270;2022-12-29T10:49:14;23.25;;;3.33;;
47053;SDS011;32811;52.382;5.270;2022-12-29T10:51:47;17.52;;;3.58;;
47053;SDS011;32811;52.382;5.270;2022-12-29T10:54:19;28.10;;;3.05;;
47053;SDS011;32811;52.382;5.270;2022-12-29T10:56:56;12.65;;;1.75;;
47053;SDS011;32811;52.382;5.270;2022-12-29T10:59:29;9.32;;;2.67;;
47053;SDS011;32811;52.382;5.270;2022-12-29T11:04:51;24.13;;;3.95;;
47053;SDS011;32811;52.382;5.270;2022-12-29T11:07:33;15.73;;;4.13;;
47053;SDS011;32811;52.382;5.270;2022-12-29T11:10:21;13.52;;;2.30;;
47053;SDS011;32811;52.382;5.270;2022-12-29T11:13:02;19.50;;;3.22;;
47053;SDS011;32811;52.382;5.270;2022-12-29T11:15:39;22.23;;;3.13;;
47053;SDS011;32811;52.382;5.270;2022-12-29T11:18:17;24.27;;;3.42;;
47053;SDS011;32811;52.382;5.270;2022-12-29T11:20:52;19.83;;;3.92;;
47053;SDS011;32811;52.382;5.270;2022-12-29T11:23:35;18.70;;;3.20;;
47053;SDS011;32811;52.382;5.270;2022-12-29T11:28:37;19.98;;;2.50;;
47053;SDS011;32811;52.382;5.270;2022-12-29T11:31:05;15.48;;;4.35;;
47053;SDS011;32811;52.382;5.270;2022-12-29T11:33:34;21.58;;;4.50;;
47053;SDS011;32811;52.382;5.270;2022-12-29T11:36:04;24.67;;;3.47;;
47053;SDS011;32811;52.382;5.270;2022-12-29T11:38:41;19.77;;;4.10;;
47053;SDS011;32811;52.382;5.270;2022-12-29T11:41:13;17.77;;;3.13;;
47053;SDS011;32811;52.382;5.270;2022-12-29T11:43:45;13.98;;;3.08;;
47053;SDS011;32811;52.382;5.270;2022-12-29T11:46:14;19.15;;;3.70;;
47053;SDS011;32811;52.382;5.270;2022-12-29T11:48:46;21.58;;;3.25;;
47053;SDS011;32811;52.382;5.270;2022-12-29T11:51:20;20.05;;;3.25;;
47053;SDS011;32811;52.382;5.270;2022-12-29T11:53:55;19.88;;;3.55;;
47053;SDS011;32811;52.382;5.270;2022-12-29T12:01:56;22.08;;;4.18;;
47053;SDS011;32811;52.382;5.270;2022-12-29T12:04:26;19.85;;;4.00;;
47053;SDS011;32811;52.382;5.270;2022-12-29T12:09:53;16.52;;;2.22;;
47053;SDS011;32811;52.382;5.270;2022-12-29T12:12:34;18.30;;;2.88;;
47053;SDS011;32811;52.382;5.270;2022-12-29T12:15:08;15.70;;;3.88;;
47053;SDS011;32811;52.382;5.270;2022-12-29T12:20:56;13.05;;;2.67;;
47053;SDS011;32811;52.382;5.270;2022-12-29T12:26:20;21.45;;;2.92;;
47053;SDS011;32811;52.382;5.270;2022-12-29T12:28:58;17.77;;;1.60;;
47053;SDS011;32811;52.382;5.270;2022-12-29T12:31:35;19.30;;;2.65;;
47053;SDS011;32811;52.382;5.270;2022-12-29T12:34:24;14.95;;;1.80;;
47053;SDS011;32811;52.382;5.270;2022-12-29T12:37:15;16.20;;;2.45;;
47053;SDS011;32811;52.382;5.270;2022-12-29T12:45:55;9.63;;;1.95;;
47053;SDS011;32811;52.382;5.270;2022-12-29T12:49:17;9.63;;;2.35;;
47053;SDS011;32811;52.382;5.270;2022-12-29T12:58:11;20.08;;;2.78;;
47053;SDS011;32811;52.382;5.270;2022-12-29T13:19:10;10.38;;;2.55;;
47053;SDS011;32811;52.382;5.270;2022-12-29T13:24:35;11.88;;;1.73;;
47053;SDS011;32811;52.382;5.270;2022-12-29T13:37:53;15.50;;;2.10;;
47053;SDS011;32811;52.382;5.270;2022-12-29T13:40:24;11.20;;;1.60;;
47053;SDS011;32811;52.382;5.270;2022-12-29T13:42:52;10.93;;;1.60;;
47053;SDS011;32811;52.382;5.270;2022-12-29T13:45:25;13.55;;;3.40;;
47053;SDS011;32811;52.382;5.270;2022-12-29T13:48:00;9.13;;;2.90;;
47053;SDS011;32811;52.382;5.270;2022-12-29T13:50:33;9.88;;;1.10;;
47053;SDS011;32811;52.382;5.270;2022-12-29T13:55:58;9.85;;;2.38;;
47053;SDS011;32811;52.382;5.270;2022-12-29T13:58:36;15.30;;;2.47;;
47053;SDS011;32811;52.382;5.270;2022-12-29T14:03:59;9.45;;;1.35;;
47053;SDS011;32811;52.382;5.270;2022-12-29T14:07:02;13.13;;;2.08;;
47053;SDS011;32811;52.382;5.270;2022-12-29T14:12:31;11.13;;;1.52;;
47053;SDS011;32811;52.382;5.270;2022-12-29T14:17:41;10.25;;;1.40;;
47053;SDS011;32811;52.382;5.270;2022-12-29T14:20:22;13.23;;;2.45;;
47053;SDS011;32811;52.382;5.270;2022-12-29T14:28:33;15.73;;;3.08;;
47053;SDS011;32811;52.382;5.270;2022-12-29T14:31:50;15.60;;;1.58;;
47053;SDS011;32811;52.382;5.270;2022-12-29T14:36:34;18.17;;;2.47;;
47053;SDS011;32811;52.382;5.270;2022-12-29T14:39:30;11.30;;;1.50;;
47053;SDS011;32811;52.382;5.270;2022-12-29T14:44:48;16.42;;;2.42;;
47053;SDS011;32811;52.382;5.270;2022-12-29T14:50:06;11.65;;;1.42;;
47053;SDS011;32811;52.382;5.270;2022-12-29T14:52:56;11.15;;;2.00;;
47053;SDS011;32811;52.382;5.270;2022-12-29T14:55:42;13.98;;;2.55;;
47053;SDS011;32811;52.382;5.270;2022-12-29T15:03:58;14.65;;;2.47;;
47053;SDS011;32811;52.382;5.270;2022-12-29T15:06:29;12.70;;;2.30;;
47053;SDS011;32811;52.382;5.270;2022-12-29T15:09:03;12.98;;;2.72;;
47053;SDS011;32811;52.382;5.270;2022-12-29T15:14:23;13.25;;;2.97;;
47053;SDS011;32811;52.382;5.270;2022-12-29T15:16:58;8.30;;;4.07;;
47053;SDS011;32811;52.382;5.270;2022-12-29T15:19:26;4.07;;;1.77;;
47053;SDS011;32811;52.382;5.270;2022-12-29T15:21:54;8.38;;;2.28;;
47053;SDS011;32811;52.382;5.270;2022-12-29T15:24:22;8.43;;;3.22;;
47053;SDS011;32811;52.382;5.270;2022-12-29T15:26:50;12.48;;;5.22;;
47053;SDS011;32811;52.382;5.270;2022-12-29T15:29:36;12.23;;;4.50;;
47053;SDS011;32811;52.382;5.270;2022-12-29T15:34:44;44.38;;;22.48;;
47053;SDS011;32811;52.382;5.270;2022-12-29T15:37:19;10.95;;;3.35;;
47053;SDS011;32811;52.382;5.270;2022-12-29T15:39:48;7.68;;;2.40;;
47053;SDS011;32811;52.382;5.270;2022-12-29T15:42:21;9.80;;;2.63;;
47053;SDS011;32811;52.382;5.270;2022-12-29T15:47:29;8.20;;;1.83;;
47053;SDS011;32811;52.382;5.270;2022-12-29T15:50:01;8.30;;;2.58;;
47053;SDS011;32811;52.382;5.270;2022-12-29T15:55:00;9.90;;;1.13;;
47053;SDS011;32811;52.382;5.270;2022-12-29T15:57:29;5.15;;;1.30;;
47053;SDS011;32811;52.382;5.270;2022-12-29T16:00:02;10.85;;;1.58;;
47053;SDS011;32811;52.382;5.270;2022-12-29T16:02:30;9.80;;;1.20;;
47053;SDS011;32811;52.382;5.270;2022-12-29T16:04:57;13.85;;;2.40;;
47053;SDS011;32811;52.382;5.270;2022-12-29T16:07:52;11.45;;;2.47;;
47053;SDS011;32811;52.382;5.270;2022-12-29T16:10:35;12.00;;;1.50;;
47053;SDS011;32811;52.382;5.270;2022-12-29T16:16:09;6.93;;;1.70;;
47053;SDS011;32811;52.382;5.270;2022-12-29T16:18:43;8.70;;;1.35;;
47053;SDS011;32811;52.382;5.270;2022-12-29T16:21:21;9.43;;;1.00;;
47053;SDS011;32811;52.382;5.270;2022-12-29T16:23:52;3.80;;;0.77;;
47053;SDS011;32811;52.382;5.270;2022-12-29T16:26:21;9.10;;;2.72;;
47053;SDS011;32811;52.382;5.270;2022-12-29T16:28:50;9.10;;;2.05;;
47053;SDS011;32811;52.382;5.270;2022-12-29T16:31:23;9.82;;;2.03;;
47053;SDS011;32811;52.382;5.270;2022-12-29T16:33:52;12.60;;;1.80;;
47053;SDS011;32811;52.382;5.270;2022-12-29T16:36:24;16.42;;;3.45;;
47053;SDS011;32811;52.382;5.270;2022-12-29T16:41:53;16.50;;;3.80;;
47053;SDS011;32811;52.382;5.270;2022-12-29T16:44:24;14.80;;;3.40;;
47053;SDS011;32811;52.382;5.270;2022-12-29T16:46:57;14.57;;;2.72;;
47053;SDS011;32811;52.382;5.270;2022-12-29T16:49:25;10.50;;;2.63;;
47053;SDS011;32811;52.382;5.270;2022-12-29T16:51:54;11.63;;;3.28;;
47053;SDS011;32811;52.382;5.270;2022-12-29T16:54:23;23.15;;;5.57;;
47053;SDS011;32811;52.382;5.270;2022-12-29T16:56:52;9.02;;;2.88;;
47053;SDS011;32811;52.382;5.270;2022-12-29T16:59:35;23.25;;;4.57;;
47053;SDS011;32811;52.382;5.270;2022-12-29T17:02:14;11.05;;;2.95;;
47053;SDS011;32811;52.382;5.270;2022-12-29T17:04:45;11.07;;;3.10;;
47053;SDS011;32811;52.382;5.270;2022-12-29T17:07:18;20.40;;;2.53;;
47053;SDS011;32811;52.382;5.270;2022-12-29T17:09:46;14.50;;;3.03;;
47053;SDS011;32811;52.382;5.270;2022-12-29T17:12:15;11.20;;;1.75;;
47053;SDS011;32811;52.382;5.270;2022-12-29T17:17:17;7.63;;;1.85;;
47053;SDS011;32811;52.382;5.270;2022-12-29T17:19:47;13.15;;;1.42;;
47053;SDS011;32811;52.382;5.270;2022-12-29T17:22:21;11.77;;;1.92;;
47053;SDS011;32811;52.382;5.270;2022-12-29T17:24:52;8.70;;;1.52;;
47053;SDS011;32811;52.382;5.270;2022-12-29T17:29:53;11.70;;;3.38;;
47053;SDS011;32811;52.382;5.270;2022-12-29T17:32:23;18.23;;;2.78;;
47053;SDS011;32811;52.382;5.270;2022-12-29T17:34:50;14.10;;;3.05;;
47053;SDS011;32811;52.382;5.270;2022-12-29T17:37:26;15.23;;;2.55;;
47053;SDS011;32811;52.382;5.270;2022-12-29T17:39:56;9.98;;;1.45;;
47053;SDS011;32811;52.382;5.270;2022-12-29T17:42:23;8.85;;;1.90;;
47053;SDS011;32811;52.382;5.270;2022-12-29T17:44:50;13.45;;;2.35;;
47053;SDS011;32811;52.382;5.270;2022-12-29T17:47:16;14.77;;;2.42;;
47053;SDS011;32811;52.382;5.270;2022-12-29T17:49:43;13.13;;;2.22;;
47053;SDS011;32811;52.382;5.270;2022-12-29T17:52:13;13.63;;;2.95;;
47053;SDS011;32811;52.382;5.270;2022-12-29T17:54:46;14.20;;;2.40;;
47053;SDS011;32811;52.382;5.270;2022-12-29T17:57:16;12.68;;;3.10;;
47053;SDS011;32811;52.382;5.270;2022-12-29T17:59:46;12.70;;;3.03;;
47053;SDS011;32811;52.382;5.270;2022-12-29T18:02:21;10.57;;;1.80;;
47053;SDS011;32811;52.382;5.270;2022-12-29T18:04:49;9.85;;;1.90;;
47053;SDS011;32811;52.382;5.270;2022-12-29T18:07:15;6.63;;;1.38;;
47053;SDS011;32811;52.382;5.270;2022-12-29T18:09:42;10.35;;;1.85;;
47053;SDS011;32811;52.382;5.270;2022-12-29T18:12:28;20.40;;;5.85;;